MUBY/BYM METAR and TAF weather

Enter ICAO airport designator
Station Type Date Time Source
MUBY METAR 2018/08/13 17:57 UTC NOAA

MUBY 131757Z 11006KT 030V190 9000 SCT020 33/17 Q1017


Station Type Date Time Source
MUBY Decoded METAR 2018/08/13 17:57 UTC NOAA

Bayamo , Cuba (MUBY) 20-24N 076-37W
Aug 13, 2018 - 01:57 PM EDT / 2018.08.13 1757 UTC
Wind: from the ESE (110 degrees) at 7 MPH (6 KT) (direction variable):0
Visibility: 5 mile(s):0
Sky conditions: partly cloudy
Temperature: 91 F (33 C)
Dew Point: 62 F (17 C)
Relative Humidity: 38%
Pressure (altimeter): 30.03 in. Hg (1017 hPa)
ob: MUBY 131757Z 11006KT 030V190 9000 SCT020 33/17 Q1017
cycle: 18

Station Type Date Time Source
MUBY TAF 2007/09/26 19:15 UTC NOAA

MUBY 261915Z 31008KT 270V030 1000 RA OVC020TCU XX/XX Q1013
RMK TCU OVER AD


Example: see airport list